sensor_id;sensor_type;location;lat;lon;timestamp;pressure;altitude;pressure_sealevel;temperature;humidity
12676;BME280;63820;65.654;21.944;2023-08-08T00:02:06;100312.69;;;20.67;100.00
12676;BME280;63820;65.654;21.944;2023-08-08T00:04:50;100306.69;;;20.55;100.00
12676;BME280;63820;65.654;21.944;2023-08-08T00:07:34;100309.63;;;20.62;100.00
12676;BME280;63820;65.654;21.944;2023-08-08T00:10:18;100308.09;;;20.60;100.00
12676;BME280;63820;65.654;21.944;2023-08-08T00:13:03;100306.81;;;20.54;100.00
12676;BME280;63820;65.654;21.944;2023-08-08T00:15:47;100301.78;;;20.51;100.00
12676;BME280;63820;65.654;21.944;2023-08-08T00:18:31;100308.59;;;20.44;100.00
12676;BME280;63820;65.654;21.944;2023-08-08T00:21:16;100306.44;;;20.38;100.00
12676;BME280;63820;65.654;21.944;2023-08-08T00:23:59;100304.28;;;20.43;100.00
12676;BME280;63820;65.654;21.944;2023-08-08T00:26:43;100309.22;;;20.36;100.00
12676;BME280;63820;65.654;21.944;2023-08-08T00:29:27;100305.38;;;20.40;100.00
12676;BME280;63820;65.654;21.944;2023-08-08T00:32:11;100307.88;;;20.42;100.00
12676;BME280;63820;65.654;21.944;2023-08-08T00:34:55;100315.63;;;20.34;100.00
12676;BME280;63820;65.654;21.944;2023-08-08T00:37:39;100314.84;;;20.43;100.00
12676;BME280;63820;65.654;21.944;2023-08-08T00:40:23;100312.00;;;20.35;100.00
12676;BME280;63820;65.654;21.944;2023-08-08T00:43:07;100315.88;;;20.31;100.00
12676;BME280;63820;65.654;21.944;2023-08-08T00:45:51;100309.56;;;20.22;100.00
12676;BME280;63820;65.654;21.944;2023-08-08T00:48:36;100317.91;;;20.17;100.00
12676;BME280;63820;65.654;21.944;2023-08-08T00:51:21;100313.13;;;20.11;100.00
12676;BME280;63820;65.654;21.944;2023-08-08T00:54:05;100319.66;;;20.07;100.00
12676;BME280;63820;65.654;21.944;2023-08-08T00:56:50;100318.56;;;20.10;100.00
12676;BME280;63820;65.654;21.944;2023-08-08T00:59:35;100309.34;;;20.04;100.00
12676;BME280;63820;65.654;21.944;2023-08-08T01:02:19;100310.06;;;20.06;100.00
12676;BME280;63820;65.654;21.944;2023-08-08T01:05:04;100314.88;;;20.01;100.00
12676;BME280;63820;65.654;21.944;2023-08-08T01:08:04;100310.25;;;19.93;100.00
12676;BME280;63820;65.654;21.944;2023-08-08T01:10:49;100318.19;;;19.93;100.00
12676;BME280;63820;65.654;21.944;2023-08-08T01:13:34;100315.09;;;19.88;100.00
12676;BME280;63820;65.654;21.944;2023-08-08T01:16:20;100321.59;;;19.84;100.00
12676;BME280;63820;65.654;21.944;2023-08-08T01:19:06;100316.56;;;19.81;100.00
12676;BME280;63820;65.654;21.944;2023-08-08T01:21:53;100320.13;;;19.91;100.00
12676;BME280;63820;65.654;21.944;2023-08-08T01:24:37;100327.28;;;19.80;100.00
12676;BME280;63820;65.654;21.944;2023-08-08T01:27:22;100327.28;;;19.80;100.00
12676;BME280;63820;65.654;21.944;2023-08-08T01:30:07;100326.13;;;19.73;100.00
12676;BME280;63820;65.654;21.944;2023-08-08T01:32:51;100327.63;;;19.66;100.00
12676;BME280;63820;65.654;21.944;2023-08-08T01:35:38;100327.28;;;19.59;100.00
12676;BME280;63820;65.654;21.944;2023-08-08T01:38:33;100329.34;;;19.55;100.00
12676;BME280;63820;65.654;21.944;2023-08-08T01:41:20;100329.59;;;19.52;100.00
12676;BME280;63820;65.654;21.944;2023-08-08T01:44:05;100325.50;;;19.48;100.00
12676;BME280;63820;65.654;21.944;2023-08-08T01:46:50;100321.56;;;19.43;100.00
12676;BME280;63820;65.654;21.944;2023-08-08T01:49:34;100326.25;;;19.39;100.00
12676;BME280;63820;65.654;21.944;2023-08-08T01:52:18;100319.44;;;19.37;100.00
12676;BME280;63820;65.654;21.944;2023-08-08T01:55:02;100316.72;;;19.27;100.00
12676;BME280;63820;65.654;21.944;2023-08-08T01:57:47;100309.91;;;19.24;100.00
12676;BME280;63820;65.654;21.944;2023-08-08T02:00:31;100320.78;;;19.31;100.00
12676;BME280;63820;65.654;21.944;2023-08-08T02:03:15;100317.44;;;19.29;100.00
12676;BME280;63820;65.654;21.944;2023-08-08T02:05:59;100322.72;;;19.29;100.00
12676;BME280;63820;65.654;21.944;2023-08-08T02:08:43;100334.09;;;19.30;100.00
12676;BME280;63820;65.654;21.944;2023-08-08T02:11:26;100321.03;;;19.28;100.00
12676;BME280;63820;65.654;21.944;2023-08-08T02:14:10;100322.13;;;19.25;100.00
12676;BME280;63820;65.654;21.944;2023-08-08T02:16:54;100322.38;;;19.22;100.00
12676;BME280;63820;65.654;21.944;2023-08-08T02:19:39;100316.72;;;19.27;100.00
12676;BME280;63820;65.654;21.944;2023-08-08T02:22:23;100312.41;;;19.26;100.00
12676;BME280;63820;65.654;21.944;2023-08-08T02:25:07;100311.44;;;19.27;100.00
12676;BME280;63820;65.654;21.944;2023-08-08T02:27:51;100295.16;;;19.22;100.00
12676;BME280;63820;65.654;21.944;2023-08-08T02:30:35;100293.47;;;19.21;100.00
12676;BME280;63820;65.654;21.944;2023-08-08T02:33:19;100290.34;;;19.27;100.00
12676;BME280;63820;65.654;21.944;2023-08-08T02:36:04;100287.69;;;19.27;100.00
12676;BME280;63820;65.654;21.944;2023-08-08T02:38:48;100286.28;;;19.23;100.00
12676;BME280;63820;65.654;21.944;2023-08-08T02:41:34;100290.47;;;19.25;100.00
12676;BME280;63820;65.654;21.944;2023-08-08T02:44:17;100292.25;;;19.25;100.00
12676;BME280;63820;65.654;21.944;2023-08-08T02:47:03;100302.06;;;19.34;100.00
12676;BME280;63820;65.654;21.944;2023-08-08T02:49:48;100315.59;;;19.41;100.00
12676;BME280;63820;65.654;21.944;2023-08-08T02:52:32;100313.31;;;19.36;100.00
12676;BME280;63820;65.654;21.944;2023-08-08T02:55:16;100319.31;;;19.38;100.00
12676;BME280;63820;65.654;21.944;2023-08-08T02:58:00;100309.47;;;19.40;100.00
12676;BME280;63820;65.654;21.944;2023-08-08T03:00:43;100314.25;;;19.46;100.00
12676;BME280;63820;65.654;21.944;2023-08-08T03:03:27;100328.25;;;19.58;100.00
12676;BME280;63820;65.654;21.944;2023-08-08T03:06:12;100319.25;;;19.61;100.00
12676;BME280;63820;65.654;21.944;2023-08-08T03:08:56;100317.06;;;19.66;100.00
12676;BME280;63820;65.654;21.944;2023-08-08T03:11:40;100314.28;;;19.67;100.00
12676;BME280;63820;65.654;21.944;2023-08-08T03:14:25;100315.00;;;19.69;100.00
12676;BME280;63820;65.654;21.944;2023-08-08T03:17:09;100317.38;;;19.72;100.00
12676;BME280;63820;65.654;21.944;2023-08-08T03:19:53;100313.91;;;19.72;100.00
12676;BME280;63820;65.654;21.944;2023-08-08T03:22:37;100320.84;;;19.73;100.00
12676;BME280;63820;65.654;21.944;2023-08-08T03:25:22;100320.84;;;19.73;100.00
12676;BME280;63820;65.654;21.944;2023-08-08T03:28:06;100313.81;;;19.83;100.00
12676;BME280;63820;65.654;21.944;2023-08-08T03:30:50;100312.59;;;19.87;100.00
12676;BME280;63820;65.654;21.944;2023-08-08T03:33:35;100304.84;;;19.95;100.00
12676;BME280;63820;65.654;21.944;2023-08-08T03:36:19;100313.66;;;20.05;100.00
12676;BME280;63820;65.654;21.944;2023-08-08T03:39:03;100303.28;;;20.13;100.00
12676;BME280;63820;65.654;21.944;2023-08-08T03:41:47;100298.16;;;20.21;100.00
12676;BME280;63820;65.654;21.944;2023-08-08T03:44:31;100292.28;;;20.39;100.00
12676;BME280;63820;65.654;21.944;2023-08-08T03:47:15;100302.97;;;20.68;100.00
12676;BME280;63820;65.654;21.944;2023-08-08T03:49:59;100298.66;;;20.96;100.00
12676;BME280;63820;65.654;21.944;2023-08-08T03:52:44;100292.84;;;21.21;100.00
12676;BME280;63820;65.654;21.944;2023-08-08T03:55:28;100291.47;;;21.46;100.00
12676;BME280;63820;65.654;21.944;2023-08-08T03:58:12;100277.44;;;21.92;100.00
12676;BME280;63820;65.654;21.944;2023-08-08T04:00:56;100275.84;;;22.46;100.00
12676;BME280;63820;65.654;21.944;2023-08-08T04:03:40;100273.13;;;23.01;100.00
12676;BME280;63820;65.654;21.944;2023-08-08T04:06:24;100278.53;;;23.27;100.00
12676;BME280;63820;65.654;21.944;2023-08-08T04:09:08;100272.81;;;23.39;100.00
12676;BME280;63820;65.654;21.944;2023-08-08T04:11:52;100281.84;;;23.29;100.00
12676;BME280;63820;65.654;21.944;2023-08-08T04:14:36;100276.81;;;22.72;100.00
12676;BME280;63820;65.654;21.944;2023-08-08T04:17:21;100274.47;;;22.14;100.00
12676;BME280;63820;65.654;21.944;2023-08-08T04:20:05;100270.31;;;21.93;100.00
12676;BME280;63820;65.654;21.944;2023-08-08T04:22:50;100274.31;;;21.60;100.00
12676;BME280;63820;65.654;21.944;2023-08-08T04:25:34;100268.06;;;21.41;100.00
12676;BME280;63820;65.654;21.944;2023-08-08T04:28:18;100271.56;;;21.23;100.00
12676;BME280;63820;65.654;21.944;2023-08-08T04:31:03;100276.28;;;21.19;100.00
12676;BME280;63820;65.654;21.944;2023-08-08T04:33:47;100273.06;;;21.15;100.00
12676;BME280;63820;65.654;21.944;2023-08-08T04:36:31;100264.00;;;21.18;100.00
12676;BME280;63820;65.654;21.944;2023-08-08T04:39:15;100278.09;;;21.18;100.00
12676;BME280;63820;65.654;21.944;2023-08-08T04:41:59;100280.06;;;21.26;100.00
12676;BME280;63820;65.654;21.944;2023-08-08T04:44:44;100279.78;;;21.29;100.00
12676;BME280;63820;65.654;21.944;2023-08-08T04:47:28;100279.66;;;21.31;100.00
12676;BME280;63820;65.654;21.944;2023-08-08T04:50:12;100289.13;;;21.33;100.00
12676;BME280;63820;65.654;21.944;2023-08-08T04:52:56;100286.47;;;21.43;100.00
12676;BME280;63820;65.654;21.944;2023-08-08T04:55:40;100284.38;;;21.37;100.00
12676;BME280;63820;65.654;21.944;2023-08-08T04:58:24;100299.97;;;21.40;100.00
12676;BME280;63820;65.654;21.944;2023-08-08T05:01:08;100298.16;;;21.50;100.00
12676;BME280;63820;65.654;21.944;2023-08-08T05:03:55;100294.13;;;21.56;100.00
12676;BME280;63820;65.654;21.944;2023-08-08T05:06:39;100296.63;;;21.67;100.00
12676;BME280;63820;65.654;21.944;2023-08-08T05:09:23;100281.97;;;21.63;100.00
12676;BME280;63820;65.654;21.944;2023-08-08T05:12:10;100278.47;;;21.72;100.00
12676;BME280;63820;65.654;21.944;2023-08-08T05:14:55;100279.03;;;21.75;100.00
12676;BME280;63820;65.654;21.944;2023-08-08T05:17:38;100272.00;;;21.84;100.00
12676;BME280;63820;65.654;21.944;2023-08-08T05:20:22;100265.22;;;21.81;100.00
12676;BME280;63820;65.654;21.944;2023-08-08T05:23:07;100260.97;;;21.88;100.00
12676;BME280;63820;65.654;21.944;2023-08-08T05:25:51;100258.44;;;21.97;100.00
12676;BME280;63820;65.654;21.944;2023-08-08T05:28:35;100268.75;;;22.09;100.00
12676;BME280;63820;65.654;21.944;2023-08-08T05:31:19;100258.84;;;22.39;100.00
12676;BME280;63820;65.654;21.944;2023-08-08T05:34:03;100260.97;;;22.63;100.00
12676;BME280;63820;65.654;21.944;2023-08-08T05:36:47;100264.88;;;22.86;100.00
12676;BME280;63820;65.654;21.944;2023-08-08T05:39:31;100263.88;;;23.40;100.00
12676;BME280;63820;65.654;21.944;2023-08-08T05:42:15;100263.19;;;23.82;100.00
12676;BME280;63820;65.654;21.944;2023-08-08T05:44:59;100272.94;;;24.84;100.00
12676;BME280;63820;65.654;21.944;2023-08-08T05:47:43;100277.66;;;25.79;100.00
12676;BME280;63820;65.654;21.944;2023-08-08T05:50:28;100272.78;;;26.46;100.00
12676;BME280;63820;65.654;21.944;2023-08-08T05:53:12;100285.53;;;26.98;100.00
12676;BME280;63820;65.654;21.944;2023-08-08T05:55:56;100273.63;;;27.46;100.00
12676;BME280;63820;65.654;21.944;2023-08-08T05:58:40;100278.50;;;28.39;100.00
12676;BME280;63820;65.654;21.944;2023-08-08T06:01:24;100280.75;;;28.72;100.00
12676;BME280;63820;65.654;21.944;2023-08-08T06:04:08;100286.63;;;28.96;100.00
12676;BME280;63820;65.654;21.944;2023-08-08T06:06:52;100278.97;;;29.92;100.00
12676;BME280;63820;65.654;21.944;2023-08-08T06:09:36;100277.09;;;29.58;100.00
12676;BME280;63820;65.654;21.944;2023-08-08T06:12:21;100277.34;;;30.32;100.00
12676;BME280;63820;65.654;21.944;2023-08-08T06:15:06;100283.84;;;31.45;96.81
12676;BME280;63820;65.654;21.944;2023-08-08T06:17:50;100287.34;;;31.26;85.89
12676;BME280;63820;65.654;21.944;2023-08-08T06:20:34;100274.91;;;30.92;88.49
12676;BME280;63820;65.654;21.944;2023-08-08T06:23:18;100268.09;;;30.41;92.84
12676;BME280;63820;65.654;21.944;2023-08-08T06:26:02;100276.16;;;31.09;91.15
12676;BME280;63820;65.654;21.944;2023-08-08T06:28:47;100276.63;;;31.72;83.00
12676;BME280;63820;65.654;21.944;2023-08-08T06:31:31;100268.66;;;30.30;88.40
12676;BME280;63820;65.654;21.944;2023-08-08T06:34:15;100271.66;;;31.16;85.36
12676;BME280;63820;65.654;21.944;2023-08-08T06:36:59;100273.88;;;31.98;83.30
12676;BME280;63820;65.654;21.944;2023-08-08T06:39:44;100267.13;;;32.40;79.64
12676;BME280;63820;65.654;21.944;2023-08-08T06:42:28;100278.47;;;31.71;80.39
12676;BME280;63820;65.654;21.944;2023-08-08T06:45:12;100259.44;;;31.46;81.41
12676;BME280;63820;65.654;21.944;2023-08-08T06:47:56;100272.91;;;31.13;81.32
12676;BME280;63820;65.654;21.944;2023-08-08T06:50:40;100263.63;;;32.33;79.75
12676;BME280;63820;65.654;21.944;2023-08-08T06:53:24;100266.44;;;31.94;78.15
12676;BME280;63820;65.654;21.944;2023-08-08T06:56:08;100255.81;;;32.12;75.96
12676;BME280;63820;65.654;21.944;2023-08-08T06:58:53;100265.00;;;31.84;77.58
12676;BME280;63820;65.654;21.944;2023-08-08T07:01:37;100267.50;;;31.33;78.29
12676;BME280;63820;65.654;21.944;2023-08-08T07:04:21;100265.22;;;31.50;80.03
12676;BME280;63820;65.654;21.944;2023-08-08T07:07:06;100268.69;;;32.03;78.41
12676;BME280;63820;65.654;21.944;2023-08-08T07:09:50;100273.03;;;32.62;74.59
12676;BME280;63820;65.654;21.944;2023-08-08T07:12:34;100263.63;;;32.33;72.74
12676;BME280;63820;65.654;21.944;2023-08-08T07:15:19;100258.25;;;32.78;73.24
12676;BME280;63820;65.654;21.944;2023-08-08T07:18:04;100264.81;;;32.44;72.89
12676;BME280;63820;65.654;21.944;2023-08-08T07:20:48;100274.13;;;32.48;71.08
12676;BME280;63820;65.654;21.944;2023-08-08T07:23:33;100268.53;;;32.94;70.55
12676;BME280;63820;65.654;21.944;2023-08-08T07:26:17;100264.56;;;33.96;66.05
12676;BME280;63820;65.654;21.944;2023-08-08T07:29:01;100264.59;;;32.90;70.31
12676;BME280;63820;65.654;21.944;2023-08-08T07:31:45;100241.13;;;32.97;69.00
12676;BME280;63820;65.654;21.944;2023-08-08T07:34:30;100245.13;;;34.06;66.53
12676;BME280;63820;65.654;21.944;2023-08-08T07:37:14;100241.03;;;33.10;69.18
12676;BME280;63820;65.654;21.944;2023-08-08T07:39:58;100244.09;;;33.14;68.76
12676;BME280;63820;65.654;21.944;2023-08-08T07:42:42;100229.84;;;34.48;65.04
12676;BME280;63820;65.654;21.944;2023-08-08T07:45:26;100237.41;;;33.23;67.32
12676;BME280;63820;65.654;21.944;2023-08-08T07:48:10;100243.16;;;33.52;65.75
12676;BME280;63820;65.654;21.944;2023-08-08T07:50:54;100241.25;;;33.09;66.35
12676;BME280;63820;65.654;21.944;2023-08-08T07:53:38;100238.38;;;32.66;67.89
12676;BME280;63820;65.654;21.944;2023-08-08T07:56:22;100241.63;;;31.78;71.69
12676;BME280;63820;65.654;21.944;2023-08-08T07:59:06;100239.59;;;32.76;69.87
12676;BME280;63820;65.654;21.944;2023-08-08T08:01:50;100234.81;;;33.10;69.40
12676;BME280;63820;65.654;21.944;2023-08-08T08:04:34;100238.53;;;33.84;65.67
12676;BME280;63820;65.654;21.944;2023-08-08T08:07:19;100227.78;;;32.77;67.01
12676;BME280;63820;65.654;21.944;2023-08-08T08:10:04;100214.09;;;33.04;67.72
12676;BME280;63820;65.654;21.944;2023-08-08T08:12:49;100216.06;;;32.90;68.04
12676;BME280;63820;65.654;21.944;2023-08-08T08:15:33;100198.16;;;32.26;69.44
12676;BME280;63820;65.654;21.944;2023-08-08T08:18:18;100199.88;;;33.83;67.35
12676;BME280;63820;65.654;21.944;2023-08-08T08:21:04;100202.19;;;35.18;64.54
12676;BME280;63820;65.654;21.944;2023-08-08T08:23:50;100203.53;;;36.42;60.00
12676;BME280;63820;65.654;21.944;2023-08-08T08:26:35;100204.88;;;35.41;61.27
12676;BME280;63820;65.654;21.944;2023-08-08T08:29:19;100195.44;;;35.79;58.92
12676;BME280;63820;65.654;21.944;2023-08-08T08:32:04;100206.41;;;35.60;57.53
12676;BME280;63820;65.654;21.944;2023-08-08T08:34:48;100209.47;;;36.39;57.74
12676;BME280;63820;65.654;21.944;2023-08-08T08:37:33;100212.06;;;36.34;55.16
12676;BME280;63820;65.654;21.944;2023-08-08T08:40:17;100219.41;;;36.79;56.10
12676;BME280;63820;65.654;21.944;2023-08-08T08:43:03;100228.75;;;37.72;53.91
12676;BME280;63820;65.654;21.944;2023-08-08T08:45:50;100214.81;;;36.79;55.60
12676;BME280;63820;65.654;21.944;2023-08-08T08:48:35;100216.72;;;36.67;58.30
12676;BME280;63820;65.654;21.944;2023-08-08T08:51:19;100220.31;;;36.39;55.38
12676;BME280;63820;65.654;21.944;2023-08-08T08:54:05;100220.44;;;38.00;55.36
12676;BME280;63820;65.654;21.944;2023-08-08T08:56:50;100223.13;;;36.61;55.58
12676;BME280;63820;65.654;21.944;2023-08-08T08:59:34;100201.47;;;35.57;56.32
12676;BME280;63820;65.654;21.944;2023-08-08T09:02:19;100208.03;;;34.91;57.49
12676;BME280;63820;65.654;21.944;2023-08-08T09:05:03;100201.13;;;34.77;58.76
12676;BME280;63820;65.654;21.944;2023-08-08T09:07:49;100189.22;;;34.06;60.65
12676;BME280;63820;65.654;21.944;2023-08-08T09:10:33;100189.94;;;35.50;60.18
12676;BME280;63820;65.654;21.944;2023-08-08T09:13:19;100186.53;;;35.55;57.18
12676;BME280;63820;65.654;21.944;2023-08-08T09:16:06;100187.81;;;36.27;54.90
12676;BME280;63820;65.654;21.944;2023-08-08T09:18:50;100174.75;;;34.91;57.65
12676;BME280;63820;65.654;21.944;2023-08-08T09:21:36;100168.69;;;34.77;60.14
12676;BME280;63820;65.654;21.944;2023-08-08T09:24:20;100187.69;;;35.12;57.10
12676;BME280;63820;65.654;21.944;2023-08-08T09:27:04;100175.09;;;35.64;58.37
12676;BME280;63820;65.654;21.944;2023-08-08T09:29:49;100174.41;;;36.09;55.20
12676;BME280;63820;65.654;21.944;2023-08-08T09:32:34;100175.28;;;35.34;56.76
12676;BME280;63820;65.654;21.944;2023-08-08T09:35:18;100174.38;;;35.81;57.99
12676;BME280;63820;65.654;21.944;2023-08-08T09:38:03;100160.25;;;34.14;58.69
12676;BME280;63820;65.654;21.944;2023-08-08T09:40:47;100167.69;;;34.90;58.07
12676;BME280;63820;65.654;21.944;2023-08-08T09:43:33;100151.28;;;35.78;56.70
12676;BME280;63820;65.654;21.944;2023-08-08T09:46:19;100167.56;;;35.66;57.39
12676;BME280;63820;65.654;21.944;2023-08-08T09:49:04;100160.09;;;34.38;59.39
12676;BME280;63820;65.654;21.944;2023-08-08T09:51:49;100160.31;;;35.95;56.98
12676;BME280;63820;65.654;21.944;2023-08-08T09:54:36;100163.91;;;35.61;55.63
12676;BME280;63820;65.654;21.944;2023-08-08T09:57:21;100150.06;;;36.38;54.28
12676;BME280;63820;65.654;21.944;2023-08-08T10:00:07;100154.00;;;36.18;55.65
12676;BME280;63820;65.654;21.944;2023-08-08T10:02:56;100144.03;;;34.14;59.16
12676;BME280;63820;65.654;21.944;2023-08-08T10:05:40;100147.78;;;34.84;61.18
12676;BME280;63820;65.654;21.944;2023-08-08T10:08:24;100146.53;;;36.37;55.05
12676;BME280;63820;65.654;21.944;2023-08-08T10:11:09;100147.91;;;36.11;56.22
12676;BME280;63820;65.654;21.944;2023-08-08T10:13:55;100149.50;;;37.36;53.73
12676;BME280;63820;65.654;21.944;2023-08-08T10:16:42;100149.47;;;38.45;52.09
12676;BME280;63820;65.654;21.944;2023-08-08T10:19:27;100135.44;;;36.39;53.49
12676;BME280;63820;65.654;21.944;2023-08-08T10:22:11;100118.97;;;35.48;55.13
12676;BME280;63820;65.654;21.944;2023-08-08T10:24:55;100131.97;;;37.44;52.96
12676;BME280;63820;65.654;21.944;2023-08-08T10:27:40;100132.97;;;36.37;52.85
12676;BME280;63820;65.654;21.944;2023-08-08T10:30:24;100139.34;;;36.76;52.73
12676;BME280;63820;65.654;21.944;2023-08-08T10:33:22;100139.25;;;37.21;52.51
12676;BME280;63820;65.654;21.944;2023-08-08T10:36:07;100141.69;;;38.59;50.14
12676;BME280;63820;65.654;21.944;2023-08-08T10:38:51;100137.44;;;37.27;51.56
12676;BME280;63820;65.654;21.944;2023-08-08T10:41:45;100129.38;;;36.20;53.15
12676;BME280;63820;65.654;21.944;2023-08-08T10:44:29;100131.72;;;37.89;51.28
12676;BME280;63820;65.654;21.944;2023-08-08T10:47:14;100141.56;;;39.60;49.65
12676;BME280;63820;65.654;21.944;2023-08-08T10:50:04;100130.66;;;39.55;47.47
12676;BME280;63820;65.654;21.944;2023-08-08T10:52:56;100123.94;;;37.76;50.15
12676;BME280;63820;65.654;21.944;2023-08-08T10:55:43;100131.50;;;38.49;49.52
12676;BME280;63820;65.654;21.944;2023-08-08T10:58:40;100132.44;;;36.85;52.44
12676;BME280;63820;65.654;21.944;2023-08-08T11:01:27;100133.16;;;36.81;52.98
12676;BME280;63820;65.654;21.944;2023-08-08T11:04:12;100120.38;;;37.31;52.25
12676;BME280;63820;65.654;21.944;2023-08-08T11:06:56;100130.41;;;36.47;53.01
12676;BME280;63820;65.654;21.944;2023-08-08T11:09:42;100131.28;;;36.81;50.99
12676;BME280;63820;65.654;21.944;2023-08-08T11:12:27;100121.31;;;37.64;49.94
12676;BME280;63820;65.654;21.944;2023-08-08T11:15:11;100132.22;;;37.42;52.74
12676;BME280;63820;65.654;21.944;2023-08-08T11:17:56;100143.28;;;36.85;52.11
12676;BME280;63820;65.654;21.944;2023-08-08T11:20:40;100133.94;;;37.70;49.71
12676;BME280;63820;65.654;21.944;2023-08-08T11:23:24;100141.16;;;38.30;49.44
12676;BME280;63820;65.654;21.944;2023-08-08T11:26:08;100135.09;;;38.01;49.37
12676;BME280;63820;65.654;21.944;2023-08-08T11:28:52;100137.53;;;37.76;51.49
12676;BME280;63820;65.654;21.944;2023-08-08T11:31:37;100133.03;;;37.43;49.45
12676;BME280;63820;65.654;21.944;2023-08-08T11:34:21;100132.78;;;38.37;49.47
12676;BME280;63820;65.654;21.944;2023-08-08T11:37:06;100131.59;;;37.02;49.30
12676;BME280;63820;65.654;21.944;2023-08-08T11:39:50;100135.59;;;38.47;48.58
12676;BME280;63820;65.654;21.944;2023-08-08T11:42:34;100137.69;;;38.67;47.91
12676;BME280;63820;65.654;21.944;2023-08-08T11:45:19;100133.69;;;38.47;46.98
12676;BME280;63820;65.654;21.944;2023-08-08T11:48:04;100141.81;;;39.53;46.86
12676;BME280;63820;65.654;21.944;2023-08-08T11:50:48;100120.22;;;39.37;46.95
12676;BME280;63820;65.654;21.944;2023-08-08T11:53:34;100130.84;;;38.64;46.87
12676;BME280;63820;65.654;21.944;2023-08-08T11:56:21;100117.06;;;36.00;50.51
12676;BME280;63820;65.654;21.944;2023-08-08T11:59:06;100120.53;;;35.21;54.75
12676;BME280;63820;65.654;21.944;2023-08-08T12:01:52;100132.97;;;36.54;53.48
12676;BME280;63820;65.654;21.944;2023-08-08T12:04:36;100123.78;;;36.88;51.28
12676;BME280;63820;65.654;21.944;2023-08-08T12:07:22;100121.03;;;36.10;54.82
12676;BME280;63820;65.654;21.944;2023-08-08T12:10:12;100124.66;;;36.44;53.54
12676;BME280;63820;65.654;21.944;2023-08-08T12:12:58;100123.69;;;38.90;50.19
12676;BME280;63820;65.654;21.944;2023-08-08T12:15:43;100127.16;;;38.80;47.02
12676;BME280;63820;65.654;21.944;2023-08-08T12:18:27;100143.78;;;39.68;46.05
12676;BME280;63820;65.654;21.944;2023-08-08T12:21:13;100139.34;;;40.19;43.72
12676;BME280;63820;65.654;21.944;2023-08-08T12:23:57;100121.38;;;40.59;44.04
12676;BME280;63820;65.654;21.944;2023-08-08T12:26:42;100131.97;;;41.32;41.71
12676;BME280;63820;65.654;21.944;2023-08-08T12:29:27;100125.41;;;41.28;42.88
12676;BME280;63820;65.654;21.944;2023-08-08T12:32:11;100098.97;;;40.88;42.33
12676;BME280;63820;65.654;21.944;2023-08-08T12:34:55;100097.84;;;40.02;43.75
12676;BME280;63820;65.654;21.944;2023-08-08T12:37:40;100107.22;;;41.67;41.72
12676;BME280;63820;65.654;21.944;2023-08-08T12:40:24;100097.88;;;40.68;41.48
12676;BME280;63820;65.654;21.944;2023-08-08T12:43:10;100092.66;;;41.82;40.69
12676;BME280;63820;65.654;21.944;2023-08-08T12:45:57;100099.03;;;41.62;40.90
12676;BME280;63820;65.654;21.944;2023-08-08T12:48:40;100101.97;;;41.01;40.23
12676;BME280;63820;65.654;21.944;2023-08-08T12:51:25;100093.84;;;40.45;40.76
12676;BME280;63820;65.654;21.944;2023-08-08T12:54:09;100088.06;;;40.57;41.77
12676;BME280;63820;65.654;21.944;2023-08-08T12:56:53;100094.31;;;40.98;40.63
12676;BME280;63820;65.654;21.944;2023-08-08T12:59:37;100076.00;;;41.19;41.90
12676;BME280;63820;65.654;21.944;2023-08-08T13:02:21;100059.06;;;39.90;42.54
12676;BME280;63820;65.654;21.944;2023-08-08T13:05:05;100073.63;;;39.38;43.98
12676;BME280;63820;65.654;21.944;2023-08-08T13:07:51;100074.53;;;39.49;42.34
12676;BME280;63820;65.654;21.944;2023-08-08T13:10:36;100043.22;;;39.51;42.72
12676;BME280;63820;65.654;21.944;2023-08-08T13:13:20;100039.19;;;39.07;43.34
12676;BME280;63820;65.654;21.944;2023-08-08T13:16:09;100029.50;;;36.62;46.55
12676;BME280;63820;65.654;21.944;2023-08-08T13:18:54;100030.03;;;34.47;51.98
12676;BME280;63820;65.654;21.944;2023-08-08T13:21:38;100027.78;;;33.24;55.40
12676;BME280;63820;65.654;21.944;2023-08-08T13:24:23;100030.03;;;32.09;59.25
12676;BME280;63820;65.654;21.944;2023-08-08T13:27:07;100026.09;;;31.22;64.11
12676;BME280;63820;65.654;21.944;2023-08-08T13:29:51;100031.75;;;31.59;70.06
12676;BME280;63820;65.654;21.944;2023-08-08T13:32:35;100029.19;;;31.26;69.09
12676;BME280;63820;65.654;21.944;2023-08-08T13:35:19;100020.78;;;30.96;69.79
12676;BME280;63820;65.654;21.944;2023-08-08T13:38:04;100027.75;;;31.23;77.58
12676;BME280;63820;65.654;21.944;2023-08-08T13:40:48;100023.91;;;30.73;78.70
12676;BME280;63820;65.654;21.944;2023-08-08T13:43:32;100031.53;;;31.15;84.11
12676;BME280;63820;65.654;21.944;2023-08-08T13:46:16;100030.91;;;30.94;79.85
12676;BME280;63820;65.654;21.944;2023-08-08T13:49:00;100024.06;;;29.99;82.71
12676;BME280;63820;65.654;21.944;2023-08-08T13:51:44;100029.38;;;29.38;89.17
12676;BME280;63820;65.654;21.944;2023-08-08T13:54:28;100033.16;;;28.81;100.00
12676;BME280;63820;65.654;21.944;2023-08-08T13:57:13;100035.59;;;28.76;100.00
12676;BME280;63820;65.654;21.944;2023-08-08T13:59:57;100023.94;;;28.83;100.00
12676;BME280;63820;65.654;21.944;2023-08-08T14:02:41;100013.09;;;28.70;100.00
12676;BME280;63820;65.654;21.944;2023-08-08T14:05:25;100020.16;;;28.78;100.00